Trimble, Missouri
Current Conditions -  °F | °C
As of 2:53 PM on Friday 24 Oct 2014 (Local Time) from KMCI Reporting Station
Overcast Overcast  
Wind Chill: 23°   Ceiling: 25000
Heat Index: 23°   Visibility: 10mi
Dew Point: 17°   Wind: 14mph
Humidity: 71%   Direction: 220°SW
Pressure: 29.96"   Gusts: NA
Location:  39.47°N, 94.56°W
Report Text: KMCI 241953Z 22012KT 10SM OVC250 23/17 A2996 RMK AO2 SLP140 T02280172
Loading
Personal Weather Stations






























Interactive Weather Map
Tropical Storm Tracking
New forecast layout! Learn more

10-Day Weather Forecast

Advertisements
Track Severe Weather on mobile